Aviation Digital Data Service (ADDS)

Output produced by METARs form (0025 UTC 17 July 2019)
found at http://www.aviationweather.gov/metar/data/
 
UTDD 170000Z 00000MPS 9999 NSC 23/12 Q1004 R09/D NOSIG RMK QFE685/0914
TAF UTDD 170000Z 1701/1713 VRB02MPS 6000 FEW066CB SCT130
       
UTDL 170000Z 25001MPS 9999 NSC 26/08 Q1003 R26/CLRD70 NOSIG RMK QFE715/0953
TAF UTDL 170000Z 1701/1710 24005MPS 9999 NSC 
     TEMPO 1701/1704 VRB02MPS